Time;durP1;ratioP1;P1;durP2;ratioP2;P2;SDS_P1;SDS_P2;PMS_P1;PMS_P2;Temp;Humidity;BMP_temperature;BMP_pressure;BME280_temperature;BME280_humidity;BME280_pressure;Samples;Min_cycle;Max_cycle;Signal;HPM_P1;HPM_P2
2023/03/04 00:01:22;;;;;;;34.65;19.48;;;;;;;3.32;88.04;96471.66;5114243;28;20048;-62
2023/03/04 00:03:49;;;;;;;25.67;13.95;;;;;;;3.24;87.72;96463.97;5114134;28;20077;-62
2023/03/04 00:06:17;;;;;;;21.77;12.93;;;;;;;3.18;86.79;96459.72;5114246;28;20100;-62
2023/03/04 00:08:44;;;;;;;21.88;13.18;;;;;;;3.13;86.46;96456.34;5114029;28;20043;-62
2023/03/04 00:11:15;;;;;;;20.30;11.15;;;;;;;3.01;86.00;96460.75;5114099;28;20056;-63
2023/03/04 00:13:42;;;;;;;22.23;13.57;;;;;;;2.88;85.69;96460.00;5114080;28;20116;-63
2023/03/04 00:16:09;;;;;;;43.78;23.88;;;;;;;2.82;85.95;96451.44;5114104;28;20047;-63
2023/03/04 00:18:37;;;;;;;23.00;15.60;;;;;;;2.76;86.39;96455.78;5114096;28;20044;-62
2023/03/04 00:21:05;;;;;;;19.58;11.25;;;;;;;2.63;85.57;96459.34;5113817;28;20450;-62
2023/03/04 00:23:33;;;;;;;18.48;12.02;;;;;;;2.57;85.79;96459.38;5113987;28;20052;-62
2023/03/04 00:26:01;;;;;;;18.50;10.70;;;;;;;2.49;84.99;96460.31;5113872;28;20044;-62
2023/03/04 00:28:30;;;;;;;19.08;10.27;;;;;;;2.26;85.22;96455.31;5113739;28;20047;-62
2023/03/04 00:30:57;;;;;;;18.77;11.55;;;;;;;2.13;85.63;96452.78;5113818;28;20055;-62
2023/03/04 00:33:24;;;;;;;14.95;10.48;;;;;;;2.08;85.75;96462.28;5113802;28;20134;-63
2023/03/04 00:35:52;;;;;;;16.90;10.50;;;;;;;2.00;86.32;96456.31;5113753;28;20047;-63
2023/03/04 00:38:19;;;;;;;17.27;11.40;;;;;;;1.86;86.71;96453.78;5113689;28;20043;-63
2023/03/04 00:40:47;;;;;;;19.70;11.35;;;;;;;1.83;86.72;96457.25;5113682;28;20126;-62
2023/03/04 00:43:14;;;;;;;19.65;11.18;;;;;;;1.88;86.87;96447.78;5113449;28;20091;-63
2023/03/04 00:45:42;;;;;;;15.93;10.60;;;;;;;1.88;86.53;96449.47;5113608;28;20043;-63
2023/03/04 00:48:10;;;;;;;15.43;9.95;;;;;;;1.85;85.93;96444.34;5113564;28;20485;-63
2023/03/04 00:50:37;;;;;;;21.08;10.25;;;;;;;1.80;86.25;96444.34;5113433;28;20058;-63
2023/03/04 00:53:05;;;;;;;15.23;9.80;;;;;;;1.76;86.06;96448.69;5113691;28;20385;-63
2023/03/04 00:55:32;;;;;;;14.73;10.25;;;;;;;1.73;85.85;96448.69;5113447;28;20044;-63
2023/03/04 00:57:59;;;;;;;14.60;10.13;;;;;;;1.74;85.84;96452.13;5113299;28;20047;-63
2023/03/04 01:00:26;;;;;;;17.80;11.00;;;;;;;1.76;85.21;96442.66;5113404;28;20413;-63
2023/03/04 01:02:55;;;;;;;18.83;10.60;;;;;;;1.75;85.17;96444.38;5113481;28;20047;-63
2023/03/04 01:05:23;;;;;;;16.45;9.50;;;;;;;1.74;84.71;96445.25;5113461;28;20147;-63
2023/03/04 01:07:50;;;;;;;14.68;9.45;;;;;;;1.62;84.81;96442.72;5113204;28;20401;-62
2023/03/04 01:10:18;;;;;;;21.88;10.05;;;;;;;1.48;84.82;96438.47;5113290;28;20059;-63
2023/03/04 01:12:46;;;;;;;14.18;9.13;;;;;;;1.42;85.03;96433.34;5113402;28;20048;-62
2023/03/04 01:15:15;;;;;;;17.35;9.23;;;;;;;1.39;85.02;96431.63;5113369;28;20052;-63
2023/03/04 01:17:43;;;;;;;16.65;9.38;;;;;;;1.38;85.52;96437.66;5113332;28;20051;-63
2023/03/04 01:20:13;;;;;;;14.98;9.40;;;;;;;1.38;85.90;96434.19;5113311;28;20059;-63
2023/03/04 01:22:40;;;;;;;20.52;11.57;;;;;;;1.37;85.96;96440.22;5113414;28;20051;-63
2023/03/04 01:25:09;;;;;;;20.27;12.18;;;;;;;1.39;85.77;96438.50;5113266;28;20450;-63
2023/03/04 01:27:36;;;;;;;15.65;10.45;;;;;;;1.41;85.96;96441.94;5113181;28;20055;-63
2023/03/04 01:30:05;;;;;;;14.40;9.35;;;;;;;1.39;86.20;96444.50;5113062;28;20047;-63
2023/03/04 01:32:33;;;;;;;17.53;9.67;;;;;;;1.38;85.78;96441.94;5113154;28;20051;-63
2023/03/04 01:35:01;;;;;;;14.68;9.48;;;;;;;1.39;86.29;96439.34;5113116;28;20052;-63
2023/03/04 01:37:29;;;;;;;23.42;10.93;;;;;;;1.38;86.31;96431.63;5113096;28;20044;-63
2023/03/04 01:39:56;;;;;;;17.63;10.38;;;;;;;1.41;86.31;96441.09;5112984;28;20097;-63
2023/03/04 01:42:26;;;;;;;14.82;9.65;;;;;;;1.44;86.62;96439.34;5113024;28;20048;-63
2023/03/04 01:44:54;;;;;;;12.25;7.65;;;;;;;1.49;86.68;96436.75;5113206;28;20051;-62
2023/03/04 01:47:23;;;;;;;18.08;9.30;;;;;;;1.57;86.36;96437.59;5112906;28;20048;-63
2023/03/04 01:49:56;;;;;;;15.63;9.65;;;;;;;1.61;86.63;96444.44;5112834;28;20050;-63
2023/03/04 01:52:24;;;;;;;18.25;11.35;;;;;;;1.61;86.71;96441.88;5112984;28;20543;-62
2023/03/04 01:54:53;;;;;;;16.75;9.88;;;;;;;1.64;86.85;96443.56;5115110;28;20075;-63
2023/03/04 01:57:23;;;;;;;16.58;10.27;;;;;;;1.67;86.67;96440.97;5116601;28;20523;-62
2023/03/04 02:00:15;;;;;;;18.80;10.98;;;;;;;1.65;87.02;96432.38;5116727;28;20432;-63
2023/03/04 02:02:42;;;;;;;36.78;18.08;;;;;;;1.57;87.47;96429.00;5116610;28;20046;-63
2023/03/04 02:05:10;;;;;;;27.63;14.90;;;;;;;1.56;88.00;96437.59;5116517;28;20048;-63
2023/03/04 02:07:38;;;;;;;36.22;16.65;;;;;;;1.59;88.23;96435.84;5116433;28;20476;-63
2023/03/04 02:10:08;;;;;;;24.70;12.82;;;;;;;1.60;88.48;96439.28;5116701;28;20069;-62
2023/03/04 02:12:35;;;;;;;23.65;11.98;;;;;;;1.63;88.34;96436.72;5116228;28;20058;-63
2023/03/04 02:15:03;;;;;;;26.45;12.68;;;;;;;1.63;88.27;96431.56;5116626;28;20051;-63
2023/03/04 02:17:32;;;;;;;27.48;14.57;;;;;;;1.59;88.38;96438.44;5116295;28;20109;-63
2023/03/04 02:20:08;;;;;;;21.90;13.30;;;;;;;1.63;88.59;96434.97;5116377;28;20047;-63
2023/03/04 02:22:40;;;;;;;26.15;13.13;;;;;;;1.62;88.51;96440.13;5116164;28;20050;-63
2023/03/04 02:25:13;;;;;;;26.55;14.60;;;;;;;1.63;88.57;96429.81;5116053;28;20128;-63
2023/03/04 02:27:42;;;;;;;29.15;14.15;;;;;;;1.63;89.35;96434.13;5116014;28;20040;-63
2023/03/04 02:30:12;;;;;;;23.90;14.25;;;;;;;1.60;89.66;96434.97;5116012;28;20443;-63
2023/03/04 02:32:41;;;;;;;26.80;13.90;;;;;;;1.62;90.28;96438.41;5116237;28;20043;-62
2023/03/04 02:35:14;;;;;;;25.50;13.45;;;;;;;1.63;90.47;96434.13;5115936;28;20083;-62
2023/03/04 02:37:41;;;;;;;29.55;16.20;;;;;;;1.69;90.74;96430.66;5115880;28;20393;-62
2023/03/04 02:40:14;;;;;;;21.85;12.93;;;;;;;1.73;90.91;96427.19;5115822;28;20441;-63
2023/03/04 02:42:45;;;;;;;29.20;15.15;;;;;;;1.71;91.32;96424.63;5115674;28;20066;-64
2023/03/04 02:45:39;;;;;;;30.73;15.32;;;;;;;1.82;92.40;96427.16;5115772;28;20109;-63
2023/03/04 02:48:07;;;;;;;26.38;14.00;;;;;;;1.93;92.39;96440.00;5115643;28;20047;-63
2023/03/04 02:50:37;;;;;;;22.13;13.85;;;;;;;1.99;91.92;96437.38;5115680;28;20074;-63
2023/03/04 02:53:05;;;;;;;24.58;14.02;;;;;;;2.00;91.21;96435.66;5115647;28;20093;-62
2023/03/04 02:55:33;;;;;;;27.20;15.27;;;;;;;1.89;91.42;96433.13;5115449;28;20051;-63
2023/03/04 02:58:01;;;;;;;40.95;16.48;;;;;;;1.84;92.11;96427.16;5115398;28;20051;-62
2023/03/04 03:00:29;;;;;;;35.67;17.88;;;;;;;1.84;92.65;96429.72;5115609;28;20073;-63
2023/03/04 03:02:57;;;;;;;37.40;17.40;;;;;;;1.92;93.02;96427.97;5115698;28;20043;-62
2023/03/04 03:05:25;;;;;;;30.73;16.75;;;;;;;1.97;93.61;96423.63;5115356;28;20050;-62
2023/03/04 03:07:53;;;;;;;27.45;15.70;;;;;;;2.08;93.40;96422.72;5115551;28;20144;-63
2023/03/04 03:10:20;;;;;;;27.75;15.70;;;;;;;2.13;93.38;96416.66;5115133;28;20463;-63
2023/03/04 03:12:48;;;;;;;33.13;14.48;;;;;;;2.18;93.01;96419.22;5115279;28;20485;-62
2023/03/04 03:15:17;;;;;;;28.65;14.82;;;;;;;2.17;92.42;96416.63;5115249;28;20447;-63
2023/03/04 03:17:44;;;;;;;30.98;15.48;;;;;;;2.21;92.66;96421.78;5115172;28;20134;-63
2023/03/04 03:20:14;;;;;;;27.92;15.13;;;;;;;2.31;93.02;96422.56;5115312;28;20561;-62
2023/03/04 03:22:42;;;;;;;29.65;16.75;;;;;;;2.32;92.87;96421.69;5115150;28;20100;-63
2023/03/04 03:25:11;;;;;;;38.10;17.58;;;;;;;2.36;93.10;96422.53;5114934;28;20043;-63
2023/03/04 03:27:38;;;;;;;29.73;15.45;;;;;;;2.39;93.10;96425.09;5114945;28;20053;-64
2023/03/04 03:30:07;;;;;;;31.27;15.98;;;;;;;2.43;92.71;96431.94;5114713;28;20051;-64
2023/03/04 03:32:36;;;;;;;30.45;16.73;;;;;;;2.48;92.66;96434.50;5114797;28;20096;-63
2023/03/04 03:35:03;;;;;;;26.92;15.30;;;;;;;2.54;92.46;96444.78;5114690;28;20051;-63
2023/03/04 03:37:31;;;;;;;39.03;16.20;;;;;;;2.56;92.45;96449.94;5114803;28;20437;-63
2023/03/04 03:39:58;;;;;;;24.02;14.30;;;;;;;2.61;92.13;96441.28;5114782;28;20122;-63
2023/03/04 03:42:25;;;;;;;27.20;14.93;;;;;;;2.67;91.73;96455.03;5114703;28;20044;-63
2023/03/04 03:44:52;;;;;;;29.55;14.25;;;;;;;2.68;91.28;96456.72;5114603;28;20079;-64
2023/03/04 03:47:19;;;;;;;25.23;13.43;;;;;;;2.68;90.94;96454.16;5114558;28;20131;-63
2023/03/04 03:49:48;;;;;;;24.00;13.43;;;;;;;2.69;90.41;96458.44;5114552;28;20607;-64
2023/03/04 03:52:16;;;;;;;125.10;16.23;;;;;;;2.70;90.04;96463.59;5114327;28;20048;-63
2023/03/04 03:54:43;;;;;;;24.45;13.52;;;;;;;2.70;89.94;96462.72;5114582;28;20051;-64
2023/03/04 03:57:10;;;;;;;24.58;13.73;;;;;;;2.70;89.87;96458.44;5114074;28;20496;-63
2023/03/04 03:59:38;;;;;;;23.58;13.57;;;;;;;2.72;89.94;96464.44;5114288;28;20051;-63
2023/03/04 04:02:05;;;;;;;27.00;15.30;;;;;;;2.62;90.09;96463.66;5114276;28;20724;-63
2023/03/04 04:04:32;;;;;;;32.30;16.27;;;;;;;2.57;90.74;96449.94;5114186;28;20473;-63
2023/03/04 04:07:01;;;;;;;25.90;14.90;;;;;;;2.60;91.21;96451.63;5114220;28;20493;-64
2023/03/04 04:09:29;;;;;;;25.85;13.57;;;;;;;2.62;91.24;96448.16;5114465;28;20059;-63
2023/03/04 04:11:57;;;;;;;24.30;13.93;;;;;;;2.65;91.01;96450.72;5114061;28;20108;-63
2023/03/04 04:14:24;;;;;;;23.50;13.75;;;;;;;2.69;90.56;96450.69;5114065;28;20051;-63
2023/03/04 04:16:51;;;;;;;29.88;13.95;;;;;;;2.70;90.55;96454.97;5113531;28;20592;-63
2023/03/04 04:19:20;;;;;;;28.50;13.27;;;;;;;2.70;90.74;96449.81;5114108;28;20055;-64
2023/03/04 04:21:47;;;;;;;27.23;13.48;;;;;;;2.71;90.65;96452.38;5113938;28;20489;-63
2023/03/04 04:24:16;;;;;;;27.00;14.32;;;;;;;2.68;90.74;96446.41;5113939;28;20043;-63
2023/03/04 04:26:43;;;;;;;27.48;13.40;;;;;;;2.69;90.81;96450.69;5113856;28;20054;-64
2023/03/04 04:29:13;;;;;;;25.83;13.50;;;;;;;2.67;90.52;96442.94;5113853;28;20048;-63
2023/03/04 04:31:41;;;;;;;25.08;13.05;;;;;;;2.70;90.36;96448.09;5113762;28;20417;-63
2023/03/04 04:34:08;;;;;;;24.60;12.70;;;;;;;2.73;90.18;96442.91;5113625;28;20550;-63
2023/03/04 04:36:35;;;;;;;24.25;12.93;;;;;;;2.71;90.65;96441.22;5113827;28;20485;-64
2023/03/04 04:39:03;;;;;;;21.88;12.32;;;;;;;2.75;90.44;96446.34;5113722;28;20450;-63
2023/03/04 04:41:36;;;;;;;23.35;12.65;;;;;;;2.77;90.63;96442.00;5113579;28;20075;-63
2023/03/04 04:44:03;;;;;;;21.88;11.90;;;;;;;2.82;90.35;96436.78;5113749;28;20485;-63
2023/03/04 04:46:31;;;;;;;27.42;13.95;;;;;;;2.83;90.34;96441.09;5113581;28;20056;-62
2023/03/04 04:48:58;;;;;;;23.05;14.70;;;;;;;2.84;90.20;96442.81;5113624;28;20048;-63
2023/03/04 04:51:26;;;;;;;23.73;13.13;;;;;;;2.82;90.33;96449.72;5113464;28;20101;-63
2023/03/04 04:53:53;;;;;;;25.17;14.68;;;;;;;2.82;90.93;96456.59;5113525;28;20054;-62
2023/03/04 04:56:23;;;;;;;29.85;15.57;;;;;;;2.85;91.25;96456.56;5113196;28;20094;-62
2023/03/04 04:58:53;;;;;;;36.47;14.85;;;;;;;2.84;91.57;96460.03;5113442;28;20127;-63
2023/03/04 05:01:21;;;;;;;148.52;13.43;;;;;;;2.86;91.20;96461.72;5113512;28;20118;-63
2023/03/04 05:03:49;;;;;;;45.22;15.32;;;;;;;2.81;90.71;96462.66;5113468;28;20047;-63
2023/03/04 05:06:17;;;;;;;23.35;12.45;;;;;;;2.78;90.72;96454.06;5113370;28;20051;-63
2023/03/04 05:08:44;;;;;;;21.00;12.25;;;;;;;2.82;90.92;96460.06;5113419;28;20396;-63
2023/03/04 05:11:11;;;;;;;28.70;14.93;;;;;;;2.83;91.09;96454.00;5113262;28;20097;-63
2023/03/04 05:13:39;;;;;;;28.83;14.32;;;;;;;2.85;90.69;96460.03;5113400;28;20058;-64
2023/03/04 05:16:08;;;;;;;22.42;12.75;;;;;;;2.87;90.63;96457.44;5113264;28;20046;-62
2023/03/04 05:18:36;;;;;;;16.97;9.57;;;;;;;2.87;90.65;96455.72;5113554;28;20084;-62
2023/03/04 05:21:05;;;;;;;20.55;13.75;;;;;;;2.89;90.81;96450.53;5113388;28;20417;-63
2023/03/04 05:23:35;;;;;;;19.67;12.48;;;;;;;2.95;90.49;96462.53;5113178;28;20047;-63
2023/03/04 05:26:03;;;;;;;25.45;13.00;;;;;;;2.98;90.50;96463.34;5113199;28;20511;-62
2023/03/04 05:28:30;;;;;;;22.80;12.75;;;;;;;3.03;90.40;96469.34;5113146;28;20097;-63
2023/03/04 05:30:58;;;;;;;21.67;13.40;;;;;;;3.09;90.33;96460.69;5117172;28;20092;-63
2023/03/04 05:33:27;;;;;;;19.95;12.25;;;;;;;3.16;90.15;96464.03;5117188;28;20484;-64
2023/03/04 05:35:55;;;;;;;22.45;13.15;;;;;;;3.22;89.63;96468.31;5117046;28;20086;-63
2023/03/04 05:38:23;;;;;;;23.33;13.10;;;;;;;3.27;89.56;96466.53;5117069;28;20055;-63
2023/03/04 05:40:50;;;;;;;16.55;11.10;;;;;;;3.31;89.31;96469.97;5116947;28;20048;-62
2023/03/04 05:43:17;;;;;;;15.85;11.15;;;;;;;3.35;89.11;96471.63;5116883;28;20101;-63
2023/03/04 05:45:45;;;;;;;13.20;9.65;;;;;;;3.38;88.77;96476.78;5116853;28;20048;-62
2023/03/04 05:48:12;;;;;;;18.05;11.38;;;;;;;3.38;88.62;96479.38;5116839;28;20047;-62
2023/03/04 05:50:41;;;;;;;17.67;11.35;;;;;;;3.41;88.03;96477.59;5116990;28;20069;-63
2023/03/04 05:53:08;;;;;;;22.17;12.13;;;;;;;3.46;87.86;96479.28;5116572;28;20075;-62
2023/03/04 05:55:35;;;;;;;21.95;11.73;;;;;;;3.51;87.71;96480.94;5116771;28;20054;-62
2023/03/04 05:58:02;;;;;;;21.55;12.35;;;;;;;3.57;87.71;96486.91;5116323;28;20048;-63
2023/03/04 06:00:30;;;;;;;18.27;11.75;;;;;;;3.61;87.79;96479.09;5116649;28;20142;-63
2023/03/04 06:02:57;;;;;;;22.80;12.80;;;;;;;3.57;88.50;96476.56;5116612;28;20127;-62
2023/03/04 06:05:24;;;;;;;22.17;12.60;;;;;;;3.64;88.86;96485.97;5116574;28;20055;-63
2023/03/04 06:07:53;;;;;;;18.40;11.38;;;;;;;3.75;89.21;96478.09;5116496;28;20047;-63
2023/03/04 06:10:22;;;;;;;23.55;12.55;;;;;;;3.87;89.49;96477.09;5116395;28;20055;-63
2023/03/04 06:12:49;;;;;;;19.90;12.48;;;;;;;4.07;90.26;96479.44;5116177;28;20492;-63
2023/03/04 06:15:17;;;;;;;19.00;11.63;;;;;;;4.30;90.55;96479.13;5116300;28;20055;-63
2023/03/04 06:17:45;;;;;;;21.20;12.52;;;;;;;4.53;89.99;96479.66;5116265;28;20047;-63
2023/03/04 06:20:13;;;;;;;24.20;14.85;;;;;;;4.68;89.80;96483.75;5116331;28;20598;-62
2023/03/04 06:22:42;;;;;;;21.33;13.55;;;;;;;4.84;89.34;96480.94;5116133;28;20051;-63
2023/03/04 06:25:11;;;;;;;23.60;14.27;;;;;;;5.11;89.74;96483.91;5116255;28;20477;-63
2023/03/04 06:27:39;;;;;;;22.73;13.13;;;;;;;5.36;89.20;96481.75;5116198;28;20162;-63
2023/03/04 06:30:10;;;;;;;19.38;12.38;;;;;;;5.60;87.94;96483.94;5116181;28;20079;-63
2023/03/04 06:32:38;;;;;;;15.20;10.18;;;;;;;5.71;86.38;96488.91;5116077;28;20059;-63
2023/03/04 06:35:06;;;;;;;19.30;12.10;;;;;;;5.91;85.77;96485.94;5116024;28;20047;-63
2023/03/04 06:37:34;;;;;;;18.90;12.40;;;;;;;6.06;84.33;96496.03;5115905;28;20382;-63
2023/03/04 06:40:02;;;;;;;20.13;12.30;;;;;;;6.01;83.86;96497.84;5115489;28;20404;-62
2023/03/04 06:42:31;;;;;;;19.00;12.95;;;;;;;6.05;83.28;96496.09;5115943;28;20051;-63
2023/03/04 06:44:58;;;;;;;20.77;12.38;;;;;;;6.01;82.82;96502.16;5115780;28;20485;-63
2023/03/04 06:47:37;;;;;;;20.50;13.27;;;;;;;6.08;82.91;96501.19;5115667;28;20044;-63
2023/03/04 06:50:06;;;;;;;20.20;12.65;;;;;;;6.22;82.71;96502.63;5115606;28;20485;-63
2023/03/04 06:52:34;;;;;;;21.23;13.13;;;;;;;6.23;82.67;96499.16;5115489;28;20546;-63
2023/03/04 06:55:06;;;;;;;19.85;12.63;;;;;;;6.24;82.71;96509.53;5115593;28;20045;-64
2023/03/04 06:57:35;;;;;;;21.13;12.70;;;;;;;6.26;83.03;96515.53;5115262;28;20524;-64
2023/03/04 07:00:06;;;;;;;17.45;12.27;;;;;;;6.41;82.40;96511.75;5115504;28;20040;-63
2023/03/04 07:02:35;;;;;;;18.17;13.00;;;;;;;6.66;81.59;96500.81;5115693;28;20055;-63
2023/03/04 07:05:03;;;;;;;19.35;12.57;;;;;;;6.82;81.02;96492.66;5115359;28;20092;-63
2023/03/04 07:07:30;;;;;;;17.23;12.40;;;;;;;7.12;79.06;96497.13;5115321;28;20469;-63
2023/03/04 07:09:58;;;;;;;16.42;12.05;;;;;;;7.36;77.17;96485.25;5115205;28;20496;-63
2023/03/04 07:12:25;;;;;;;17.58;11.90;;;;;;;7.52;75.69;96479.63;5115084;28;20051;-63
2023/03/04 07:14:55;;;;;;;17.80;12.20;;;;;;;7.59;75.47;96489.84;5115325;28;20093;-63
2023/03/04 07:17:28;;;;;;;20.10;12.63;;;;;;;7.71;74.95;96488.66;5115312;28;20051;-63
2023/03/04 07:19:55;;;;;;;17.83;11.98;;;;;;;7.78;75.70;96486.75;5114992;28;20050;-63
2023/03/04 07:22:23;;;;;;;16.67;12.27;;;;;;;7.78;75.35;96478.94;5114968;28;20047;-63
2023/03/04 07:24:51;;;;;;;18.15;12.02;;;;;;;7.74;76.11;96476.47;5115182;28;20050;-64
2023/03/04 07:27:27;;;;;;;18.33;12.27;;;;;;;7.61;76.79;96486.38;5115047;28;20050;-63
2023/03/04 07:30:01;;;;;;;22.67;13.02;;;;;;;7.68;77.78;96490.50;5114745;28;20047;-63
2023/03/04 07:32:33;;;;;;;20.83;12.82;;;;;;;7.79;77.64;96490.19;5114874;28;20058;-63
2023/03/04 07:35:00;;;;;;;18.50;12.80;;;;;;;7.79;76.83;96485.00;5114779;28;20048;-63
2023/03/04 07:37:27;;;;;;;18.67;13.50;;;;;;;7.70;77.22;96484.34;5114612;28;20044;-64
2023/03/04 07:39:56;;;;;;;21.50;15.23;;;;;;;7.54;79.09;96475.25;5114820;28;20040;-63
2023/03/04 07:42:24;;;;;;;18.95;13.77;;;;;;;7.56;79.17;96482.13;5114681;28;20054;-63
2023/03/04 07:44:53;;;;;;;21.83;14.07;;;;;;;7.51;79.43;96477.94;5114719;28;20043;-63
2023/03/04 07:47:22;;;;;;;22.27;13.48;;;;;;;7.56;79.95;96479.50;5114575;28;20392;-63
2023/03/04 07:49:50;;;;;;;22.00;13.45;;;;;;;7.67;78.29;96483.56;5114506;28;20058;-62
2023/03/04 07:52:17;;;;;;;18.10;13.15;;;;;;;7.91;76.52;96489.88;5113749;28;20056;-64
2023/03/04 07:54:44;;;;;;;19.02;12.65;;;;;;;8.04;77.11;96490.38;5114427;28;20077;-63
2023/03/04 07:57:12;;;;;;;26.88;14.55;;;;;;;8.12;76.61;96492.75;5114038;28;20047;-63
2023/03/04 07:59:40;;;;;;;19.42;13.43;;;;;;;8.33;75.63;96488.66;5114294;28;20051;-63
2023/03/04 08:02:08;;;;;;;15.95;10.82;;;;;;;8.39;73.79;96500.66;5114210;28;20551;-63
2023/03/04 08:04:37;;;;;;;20.45;11.88;;;;;;;8.40;74.22;96493.72;5114279;28;20401;-64
2023/03/04 08:07:05;;;;;;;17.08;11.43;;;;;;;8.36;73.94;96489.50;5114195;28;20485;-63
2023/03/04 08:09:32;;;;;;;16.08;11.23;;;;;;;8.28;75.04;96484.50;5114059;28;20127;-64
2023/03/04 08:11:59;;;;;;;15.32;10.82;;;;;;;8.07;74.59;96490.28;5113942;28;20401;-63
2023/03/04 08:14:26;;;;;;;16.80;11.57;;;;;;;8.00;76.14;96488.75;5114055;28;20062;-63
2023/03/04 08:16:54;;;;;;;15.95;11.70;;;;;;;7.88;77.00;96482.13;5114017;28;20048;-63
2023/03/04 08:19:23;;;;;;;19.15;12.80;;;;;;;7.82;77.69;96484.91;5113974;28;20477;-64
2023/03/04 08:21:52;;;;;;;16.80;11.57;;;;;;;7.83;78.25;96484.03;5114014;28;20139;-63
2023/03/04 08:24:19;;;;;;;14.23;10.38;;;;;;;7.82;77.03;96480.56;5113955;28;20048;-63
2023/03/04 08:26:51;;;;;;;19.75;11.27;;;;;;;8.05;76.64;96473.00;5114023;28;20044;-63
2023/03/04 08:29:22;;;;;;;13.57;10.80;;;;;;;8.24;75.85;96480.28;5113785;28;20044;-63
2023/03/04 08:31:54;;;;;;;15.55;11.27;;;;;;;8.36;75.89;96474.69;5113716;28;20052;-64
2023/03/04 08:34:25;;;;;;;14.48;11.18;;;;;;;8.33;75.87;96480.84;5113706;28;20105;-64
2023/03/04 08:36:55;;;;;;;14.57;9.90;;;;;;;8.32;75.78;96481.75;5113712;28;20062;-63
2023/03/04 08:39:27;;;;;;;15.02;9.75;;;;;;;8.26;74.32;96483.69;5113667;28;20047;-64
2023/03/04 08:41:54;;;;;;;14.93;9.05;;;;;;;8.33;74.31;96486.06;5113643;28;20047;-64
2023/03/04 08:44:23;;;;;;;10.93;7.90;;;;;;;8.19;73.98;96480.41;5113458;28;20051;-64
2023/03/04 08:46:50;;;;;;;12.80;8.60;;;;;;;8.14;74.58;96477.06;5113549;28;20044;-64
2023/03/04 08:49:17;;;;;;;13.68;9.45;;;;;;;8.16;74.93;96480.50;5113544;28;20079;-63
2023/03/04 08:51:46;;;;;;;11.82;9.43;;;;;;;8.30;74.83;96483.53;5113461;28;20477;-63
2023/03/04 08:54:15;;;;;;;12.63;9.15;;;;;;;8.38;73.99;96480.72;5113481;28;20126;-63
2023/03/04 08:56:43;;;;;;;13.27;9.70;;;;;;;8.44;73.92;96483.16;5113115;28;20047;-63
2023/03/04 08:59:11;;;;;;;19.40;8.30;;;;;;;8.46;74.33;96485.69;5113441;28;20047;-64
2023/03/04 09:01:38;;;;;;;12.60;8.18;;;;;;;8.50;74.97;96481.22;5113288;28;20052;-63
2023/03/04 09:04:06;;;;;;;12.68;9.63;;;;;;;8.63;73.88;96482.59;5116189;28;20054;-64
2023/03/04 09:06:33;;;;;;;12.27;8.57;;;;;;;8.69;74.06;96474.59;5117773;28;20043;-63
2023/03/04 09:09:03;;;;;;;11.13;8.35;;;;;;;8.63;73.81;96477.38;5117702;28;20043;-64
2023/03/04 09:11:32;;;;;;;8.90;7.05;;;;;;;8.77;73.75;96470.88;5117502;28;20047;-63
2023/03/04 09:14:00;;;;;;;15.38;9.45;;;;;;;8.88;73.58;96473.97;5117551;28;20134;-63
2023/03/04 09:16:27;;;;;;;13.07;9.45;;;;;;;9.03;72.30;96463.97;5117589;28;20539;-63
2023/03/04 09:18:54;;;;;;;10.88;8.35;;;;;;;9.14;72.23;96469.69;5117456;28;20401;-63
2023/03/04 09:21:22;;;;;;;20.83;13.23;;;;;;;9.19;71.98;96474.75;5117550;28;20127;-64
2023/03/04 09:23:50;;;;;;;15.02;11.20;;;;;;;9.29;72.23;96462.22;5117313;28;20047;-63
2023/03/04 09:26:22;;;;;;;17.70;11.52;;;;;;;9.47;72.27;96465.97;5117271;28;20079;-63
2023/03/04 09:28:57;;;;;;;12.32;9.60;;;;;;;9.42;72.60;96457.44;5117143;28;20485;-63
2023/03/04 09:31:25;;;;;;;12.95;10.30;;;;;;;9.62;73.72;96451.50;5117090;28;20048;-63
2023/03/04 09:33:54;;;;;;;14.45;10.20;;;;;;;10.05;73.67;96456.09;5117127;28;20048;-63
2023/03/04 09:36:21;;;;;;;13.20;9.23;;;;;;;10.17;70.65;96455.63;5117030;28;20044;-64
2023/03/04 09:38:50;;;;;;;11.88;8.48;;;;;;;10.34;69.48;96455.00;5116976;28;20137;-64
2023/03/04 09:41:21;;;;;;;13.18;9.50;;;;;;;10.36;70.36;96450.53;5117025;28;20416;-63
2023/03/04 09:43:50;;;;;;;16.65;9.95;;;;;;;10.32;69.06;96445.47;5116859;28;20053;-63
2023/03/04 09:46:23;;;;;;;11.70;7.90;;;;;;;10.07;67.24;96449.03;5116841;28;20044;-63
2023/03/04 09:48:54;;;;;;;10.75;7.70;;;;;;;9.85;68.52;96452.47;5116900;28;20047;-64
2023/03/04 09:51:31;;;;;;;9.90;7.75;;;;;;;9.59;67.51;96441.19;5116774;28;20063;-64
2023/03/04 09:54:08;;;;;;;10.48;7.32;;;;;;;9.46;68.93;96444.22;5116598;28;20130;-63
2023/03/04 09:56:38;;;;;;;8.57;7.18;;;;;;;9.33;68.96;96441.19;5116492;28;20052;-64
2023/03/04 09:59:15;;;;;;;9.73;7.23;;;;;;;9.13;69.57;96439.28;5116616;28;20473;-63
2023/03/04 10:01:50;;;;;;;12.07;8.68;;;;;;;9.08;71.06;96439.44;5116729;28;20047;-64
2023/03/04 10:04:22;;;;;;;12.10;8.27;;;;;;;9.06;70.42;96443.00;5116496;28;20048;-63
2023/03/04 10:06:53;;;;;;;11.15;7.55;;;;;;;9.02;69.99;96436.16;5116475;28;20050;-63
2023/03/04 10:09:24;;;;;;;11.75;7.68;;;;;;;8.92;69.12;96425.19;5116493;28;20100;-63
2023/03/04 10:12:00;;;;;;;10.85;7.28;;;;;;;8.88;69.94;96426.19;5116438;28;20066;-63
2023/03/04 10:14:38;;;;;;;11.25;8.00;;;;;;;8.82;71.06;96427.25;5115573;28;20044;-63
2023/03/04 10:17:17;;;;;;;10.18;8.07;;;;;;;8.81;71.01;96421.19;5116233;28;20439;-63
2023/03/04 10:19:59;;;;;;;10.52;7.30;;;;;;;8.85;69.75;96416.69;5116185;28;20048;-64
2023/03/04 10:22:34;;;;;;;12.77;8.07;;;;;;;8.96;70.54;96414.59;5116244;28;20519;-64
2023/03/04 10:25:15;;;;;;;15.23;7.93;;;;;;;8.97;69.88;96413.69;5116270;28;20043;-64
2023/03/04 10:27:43;;;;;;;10.55;8.55;;;;;;;8.96;69.33;96411.13;5116207;28;20086;-63
2023/03/04 10:30:22;;;;;;;13.50;8.38;;;;;;;9.01;69.79;96411.84;5116186;28;20455;-63
2023/03/04 10:32:51;;;;;;;10.73;8.57;;;;;;;8.96;69.31;96409.38;5115996;28;20043;-63
2023/03/04 10:35:22;;;;;;;11.50;8.13;;;;;;;9.11;69.96;96401.91;5115981;28;20079;-63
2023/03/04 10:37:50;;;;;;;;;;;;;;;9.25;70.33;96400.59;5116386;28;20040;-64
2023/03/04 10:40:24;;;;;;;12.27;9.10;;;;;;;9.25;70.00;96398.84;5115799;28;19973;-63
2023/03/04 10:42:52;;;;;;;15.65;8.65;;;;;;;9.23;69.39;96390.22;5115815;28;20051;-63
2023/03/04 10:45:25;;;;;;;11.43;8.70;;;;;;;9.21;69.70;96385.03;5115866;28;20550;-64
2023/03/04 10:47:57;;;;;;;11.65;8.55;;;;;;;9.32;68.98;96383.81;5115618;28;20075;-63
2023/03/04 10:50:27;;;;;;;12.82;7.95;;;;;;;9.35;68.78;96388.91;5115597;28;20047;-63
2023/03/04 10:52:58;;;;;;;18.27;8.40;;;;;;;9.27;69.18;96381.34;5115593;28;20048;-63
2023/03/04 10:55:29;;;;;;;14.50;7.38;;;;;;;9.25;69.10;96374.50;5115665;28;20105;-63
2023/03/04 10:58:03;;;;;;;11.57;8.07;;;;;;;9.33;68.70;96368.09;5115311;28;20409;-63
2023/03/04 11:00:32;;;;;;;11.55;7.55;;;;;;;9.52;68.39;96370.06;5115544;28;20047;-63
2023/03/04 11:03:25;;;;;;;12.60;8.88;;;;;;;9.58;68.13;96374.19;5115462;28;20101;-64
2023/03/04 11:06:03;;;;;;;15.07;10.10;;;;;;;9.58;68.34;96371.59;5115422;28;20071;-63
2023/03/04 11:08:31;;;;;;;12.10;9.05;;;;;;;9.66;67.33;96363.47;5115496;28;20080;-63
2023/03/04 11:11:05;;;;;;;11.02;7.80;;;;;;;9.69;66.87;96360.75;5115320;28;20047;-63
2023/03/04 11:13:34;;;;;;;12.93;8.75;;;;;;;9.73;66.19;96349.28;5115292;28;20082;-63
2023/03/04 11:16:03;;;;;;;13.70;8.02;;;;;;;9.78;67.02;96347.31;5115257;28;20483;-63
2023/03/04 11:18:42;;;;;;;9.98;7.15;;;;;;;9.97;65.86;96338.78;5115124;28;20217;-63
2023/03/04 11:21:16;;;;;;;10.68;6.72;;;;;;;9.93;66.29;96337.22;5115160;28;20083;-64
2023/03/04 11:23:48;;;;;;;9.65;6.68;;;;;;;10.12;64.88;96329.50;5115197;28;20047;-63
2023/03/04 11:26:21;;;;;;;13.52;6.30;;;;;;;10.11;63.65;96326.03;5114306;28;20134;-64
2023/03/04 11:28:55;;;;;;;8.63;6.28;;;;;;;10.14;63.85;96322.44;5114810;28;20043;-64
2023/03/04 11:31:28;;;;;;;11.02;6.88;;;;;;;10.07;62.93;96321.84;5114847;28;20043;-63
2023/03/04 11:34:02;;;;;;;15.13;6.55;;;;;;;10.19;64.98;96317.88;5114828;28;20096;-63
2023/03/04 11:36:36;;;;;;;10.50;7.45;;;;;;;10.32;63.74;96314.75;5114708;28;20046;-63